Time;durP1;ratioP1;P1;durP2;ratioP2;P2;SDS_P1;SDS_P2;PMS_P1;PMS_P2;Temp;Humidity;BMP_temperature;BMP_pressure;BME280_temperature;BME280_humidity;BME280_pressure;Samples;Min_cycle;Max_cycle;Signal;HPM_P1;HPM_P2
2023/03/18 00:00:00;;;;;;;17.55;11.48;;;11.40;99.90;;;;;;4961100;28;21070;-62
2023/03/18 00:02:26;;;;;;;17.17;11.90;;;11.40;99.90;;;;;;4978070;28;20497;-62
2023/03/18 00:04:52;;;;;;;17.20;11.63;;;11.30;99.90;;;;;;4979842;28;20046;-62
2023/03/18 00:07:18;;;;;;;19.77;11.07;;;11.30;99.90;;;;;;4964728;28;20050;-63
2023/03/18 00:09:44;;;;;;;16.42;11.60;;;11.30;99.90;;;;;;4943953;28;20054;-62
2023/03/18 00:12:10;;;;;;;17.15;11.05;;;11.30;99.90;;;;;;4974309;28;20046;-63
2023/03/18 00:14:37;;;;;;;20.45;11.20;;;11.30;99.90;;;;;;4976539;28;20116;-63
2023/03/18 00:17:04;;;;;;;19.00;11.20;;;11.20;99.90;;;;;;4960822;28;20548;-62
2023/03/18 00:19:32;;;;;;;19.10;10.75;;;11.20;99.90;;;;;;4979601;28;20136;-62
2023/03/18 00:21:58;;;;;;;20.77;11.65;;;11.20;99.90;;;;;;4983722;28;20050;-63
2023/03/18 00:24:26;;;;;;;18.52;10.82;;;11.20;99.90;;;;;;4979587;28;20093;-62
2023/03/18 00:26:52;;;;;;;17.48;11.07;;;11.20;99.90;;;;;;4979289;28;20624;-63
2023/03/18 00:29:18;;;;;;;13.98;9.90;;;11.20;99.90;;;;;;4946136;28;20073;-63
2023/03/18 00:31:45;;;;;;;15.40;10.50;;;11.10;99.90;;;;;;4954330;28;20125;-62
2023/03/18 00:34:10;;;;;;;20.27;10.93;;;11.10;99.90;;;;;;4978318;28;20667;-62
2023/03/18 00:36:37;;;;;;;17.10;10.90;;;11.10;99.90;;;;;;4956264;28;20056;-62
2023/03/18 00:39:03;;;;;;;17.08;10.25;;;11.10;99.90;;;;;;4976309;28;20507;-62
2023/03/18 00:41:31;;;;;;;15.77;10.63;;;11.00;99.90;;;;;;4978821;28;20043;-62
2023/03/18 00:43:58;;;;;;;17.00;10.48;;;11.00;99.90;;;;;;4980459;28;20132;-63
2023/03/18 00:46:27;;;;;;;16.55;10.63;;;11.00;99.90;;;;;;4981818;28;20403;-62
2023/03/18 00:48:55;;;;;;;17.92;10.82;;;11.00;99.90;;;;;;4978159;28;20405;-63
2023/03/18 00:51:23;;;;;;;17.17;10.63;;;10.90;99.90;;;;;;4979232;28;20485;-62
2023/03/18 00:53:51;;;;;;;16.45;11.02;;;10.90;99.90;;;;;;4974243;28;21658;-62
2023/03/18 00:56:20;;;;;;;15.20;11.30;;;10.90;99.90;;;;;;4979118;28;20060;-62
2023/03/18 00:58:48;;;;;;;19.95;11.63;;;10.90;99.90;;;;;;4978034;28;20174;-62
2023/03/18 01:01:15;;;;;;;19.30;11.43;;;10.80;99.90;;;;;;4980588;28;20050;-63
2023/03/18 01:03:42;;;;;;;21.33;11.55;;;10.80;99.90;;;;;;4979733;28;20065;-63
2023/03/18 01:06:10;;;;;;;17.08;11.15;;;10.80;99.90;;;;;;4961188;28;21272;-62
2023/03/18 01:08:37;;;;;;;17.48;11.85;;;10.80;99.90;;;;;;4976120;28;20050;-62
2023/03/18 01:11:03;;;;;;;19.40;11.35;;;10.80;99.90;;;;;;4977586;28;20047;-62
2023/03/18 01:13:30;;;;;;;17.85;11.85;;;10.80;99.90;;;;;;4980947;28;20068;-63
2023/03/18 01:15:56;;;;;;;15.98;12.00;;;10.80;99.90;;;;;;4953978;28;20054;-62
2023/03/18 01:18:22;;;;;;;17.00;12.38;;;10.80;99.90;;;;;;4977803;28;20620;-62
2023/03/18 01:20:48;;;;;;;19.77;13.00;;;10.80;99.90;;;;;;4979696;28;20050;-63
2023/03/18 01:23:15;;;;;;;19.60;13.10;;;10.80;99.90;;;;;;4982359;28;20094;-62
2023/03/18 01:25:42;;;;;;;19.13;13.63;;;10.80;99.90;;;;;;4958922;28;20066;-62
2023/03/18 01:28:08;;;;;;;22.15;13.32;;;10.80;99.90;;;;;;4984514;28;20049;-61
2023/03/18 01:30:34;;;;;;;21.92;13.80;;;10.70;99.90;;;;;;4983069;28;21014;-63
2023/03/18 01:33:03;;;;;;;22.27;14.90;;;10.70;99.90;;;;;;4985083;28;20505;-63
2023/03/18 01:35:30;;;;;;;22.38;15.98;;;10.70;99.90;;;;;;4963403;28;20082;-61
2023/03/18 01:37:57;;;;;;;28.55;16.17;;;10.70;99.90;;;;;;4983886;28;20038;-61
2023/03/18 01:40:25;;;;;;;22.33;17.05;;;10.60;99.90;;;;;;4961008;28;20042;-62
2023/03/18 01:43:12;;;;;;;22.70;17.25;;;10.60;99.90;;;;;;4980346;28;20038;-62
2023/03/18 01:45:38;;;;;;;27.42;17.63;;;10.60;99.90;;;;;;4982638;28;20034;-63
2023/03/18 01:48:04;;;;;;;29.13;18.35;;;10.50;99.90;;;;;;4979771;28;20051;-63
2023/03/18 01:50:32;;;;;;;26.85;19.02;;;10.50;99.90;;;;;;4952158;28;20387;-62
2023/03/18 01:53:05;;;;;;;28.02;19.67;;;10.40;99.90;;;;;;4969417;28;20046;-62
2023/03/18 01:55:32;;;;;;;28.92;20.38;;;10.40;99.90;;;;;;4960147;28;20074;-63
2023/03/18 01:58:00;;;;;;;27.80;19.70;;;10.40;99.90;;;;;;4980250;28;20133;-63
2023/03/18 02:00:26;;;;;;;27.00;19.67;;;10.40;99.90;;;;;;4972984;28;20165;-62
2023/03/18 02:02:53;;;;;;;28.75;20.00;;;10.30;99.90;;;;;;4977124;28;20066;-62
2023/03/18 02:05:23;;;;;;;28.30;20.45;;;10.30;99.90;;;;;;4959578;28;20097;-62
2023/03/18 02:07:50;;;;;;;28.80;19.92;;;10.20;99.90;;;;;;4977507;28;20509;-62
2023/03/18 02:10:24;;;;;;;28.83;20.48;;;10.20;99.90;;;;;;4978247;28;20042;-63
2023/03/18 02:12:59;;;;;;;28.73;20.85;;;10.20;99.90;;;;;;4979076;28;20050;-62
2023/03/18 02:15:27;;;;;;;28.73;21.10;;;10.20;99.90;;;;;;4976031;28;20050;-63
2023/03/18 02:17:59;;;;;;;28.65;20.63;;;10.20;99.90;;;;;;4975726;28;20046;-63
2023/03/18 02:20:54;;;;;;;31.08;22.88;;;10.20;99.90;;;;;;4954339;28;20061;-60
2023/03/18 02:24:20;;;;;;;28.42;21.63;;;10.10;99.90;;;;;;4982721;28;20409;-63
2023/03/18 02:26:52;;;;;;;35.63;23.40;;;10.10;99.90;;;;;;4853782;29;20049;-63
2023/03/18 02:29:20;;;;;;;33.55;22.98;;;10.10;99.90;;;;;;4836971;29;20057;-62
2023/03/18 02:31:47;;;;;;;33.20;23.30;;;10.00;99.90;;;;;;4910344;28;20138;-62
2023/03/18 02:34:14;;;;;;;30.10;22.13;;;10.00;99.90;;;;;;4961546;28;20050;-62
2023/03/18 02:36:40;;;;;;;35.47;24.27;;;10.00;99.90;;;;;;4921779;28;20091;-62
2023/03/18 02:39:10;;;;;;;38.92;25.33;;;9.90;99.90;;;;;;4958959;28;21486;-62
2023/03/18 02:41:36;;;;;;;34.13;24.67;;;9.90;99.90;;;;;;4948070;28;20133;-61
2023/03/18 02:44:02;;;;;;;32.90;24.38;;;9.90;99.90;;;;;;4962056;28;20042;-62
2023/03/18 02:46:41;;;;;;;36.75;24.40;;;9.90;99.90;;;;;;4934425;28;20059;-62
2023/03/18 02:49:08;;;;;;;32.92;23.95;;;9.80;99.90;;;;;;4940868;28;20058;-62
2023/03/18 02:51:37;;;;;;;31.92;24.38;;;9.80;99.90;;;;;;4959470;28;20447;-63
2023/03/18 02:54:12;;;;;;;35.47;25.08;;;9.80;99.90;;;;;;4940997;28;20510;-63
2023/03/18 02:56:40;;;;;;;36.55;24.88;;;9.80;99.90;;;;;;4959664;28;20130;-63
2023/03/18 02:59:06;;;;;;;36.50;24.50;;;9.70;99.90;;;;;;4961968;28;20054;-63
2023/03/18 03:01:33;;;;;;;36.35;25.38;;;9.70;99.90;;;;;;4958837;28;21568;-63
2023/03/18 03:04:01;;;;;;;37.17;27.15;;;9.60;99.90;;;;;;4961045;28;20094;-62
2023/03/18 03:06:27;;;;;;;39.05;27.35;;;9.60;99.90;;;;;;4961850;28;20046;-63
2023/03/18 03:08:54;;;;;;;39.17;26.85;;;9.60;99.90;;;;;;4942922;28;20920;-62
2023/03/18 03:11:22;;;;;;;36.47;27.33;;;9.50;99.90;;;;;;4959148;28;20196;-61
2023/03/18 03:13:48;;;;;;;41.97;27.63;;;9.60;99.90;;;;;;4965251;28;20047;-63
2023/03/18 03:16:15;;;;;;;39.85;27.40;;;9.50;99.90;;;;;;4936590;28;20068;-62
2023/03/18 03:18:42;;;;;;;34.55;27.75;;;9.50;99.90;;;;;;4939031;28;20078;-62
2023/03/18 03:21:09;;;;;;;40.60;28.70;;;9.50;99.90;;;;;;4929707;28;20057;-62
2023/03/18 03:23:36;;;;;;;36.17;27.45;;;9.50;99.90;;;;;;4963014;28;20129;-61
2023/03/18 03:26:03;;;;;;;37.17;27.88;;;9.50;99.90;;;;;;4978217;28;20414;-61
2023/03/18 03:28:29;;;;;;;39.78;28.02;;;9.40;99.90;;;;;;4977352;28;20409;-63
2023/03/18 03:30:57;;;;;;;42.53;28.50;;;9.40;99.90;;;;;;4975322;28;20042;-63
2023/03/18 03:33:22;;;;;;;38.63;29.77;;;9.30;99.90;;;;;;4965158;28;20050;-62
2023/03/18 03:35:49;;;;;;;40.35;29.90;;;9.30;99.90;;;;;;4979064;28;20081;-62
2023/03/18 03:38:15;;;;;;;41.25;28.45;;;9.30;99.90;;;;;;4981151;28;20145;-61
2023/03/18 03:40:42;;;;;;;44.22;31.00;;;9.20;99.90;;;;;;4960852;28;20068;-63
2023/03/18 03:43:14;;;;;;;38.88;28.70;;;9.20;99.90;;;;;;4962527;28;20047;-62
2023/03/18 03:45:42;;;;;;;41.08;29.30;;;9.20;99.90;;;;;;4978061;28;20047;-63
2023/03/18 03:48:08;;;;;;;41.05;30.13;;;9.10;99.90;;;;;;4956151;28;20133;-61
2023/03/18 03:50:36;;;;;;;38.85;27.52;;;9.10;99.90;;;;;;4977979;28;20046;-62
2023/03/18 03:53:03;;;;;;;37.38;26.38;;;9.10;99.90;;;;;;4980701;28;20078;-62
2023/03/18 03:55:29;;;;;;;39.55;30.58;;;9.10;99.90;;;;;;4976690;28;20263;-62
2023/03/18 03:57:55;;;;;;;38.75;29.30;;;9.10;99.90;;;;;;4963150;28;20136;-63
2023/03/18 04:00:23;;;;;;;39.15;29.13;;;9.10;99.90;;;;;;4958432;28;20168;-61
2023/03/18 04:02:51;;;;;;;41.70;30.15;;;9.10;99.90;;;;;;4980582;28;20192;-62
2023/03/18 04:05:19;;;;;;;37.63;28.60;;;9.10;99.90;;;;;;4964199;28;20054;-63
2023/03/18 04:07:46;;;;;;;45.08;31.15;;;9.10;99.90;;;;;;4979018;28;20197;-61
2023/03/18 04:10:15;;;;;;;41.42;30.10;;;9.00;99.90;;;;;;4959323;28;20108;-63
2023/03/18 04:12:41;;;;;;;41.15;28.90;;;9.00;99.90;;;;;;4980626;28;21736;-63
2023/03/18 04:15:08;;;;;;;40.25;29.90;;;9.00;99.90;;;;;;4980632;28;20070;-63
2023/03/18 04:17:34;;;;;;;43.92;31.70;;;9.00;99.90;;;;;;4955237;28;20051;-62
2023/03/18 04:20:00;;;;;;;43.47;29.92;;;9.00;99.90;;;;;;4962737;28;20070;-62
2023/03/18 04:22:27;;;;;;;42.78;31.60;;;9.00;99.90;;;;;;4984288;28;20097;-63
2023/03/18 04:24:52;;;;;;;43.60;31.48;;;9.00;99.90;;;;;;4980089;28;20169;-62
2023/03/18 04:27:18;;;;;;;42.67;30.90;;;8.90;99.90;;;;;;4957304;28;20050;-63
2023/03/18 04:29:45;;;;;;;45.67;31.05;;;8.90;99.90;;;;;;4982617;28;20042;-62
2023/03/18 04:32:11;;;;;;;44.08;30.65;;;8.90;99.90;;;;;;4983295;28;20078;-63
2023/03/18 04:34:37;;;;;;;43.17;30.00;;;8.90;99.90;;;;;;4972062;28;20061;-63
2023/03/18 04:37:03;;;;;;;46.83;30.85;;;8.90;99.90;;;;;;4980579;28;21189;-63
2023/03/18 04:39:29;;;;;;;43.75;31.35;;;8.90;99.90;;;;;;4942024;28;20139;-62
2023/03/18 04:41:55;;;;;;;43.72;30.42;;;8.90;99.90;;;;;;4976380;28;20046;-63
2023/03/18 04:44:23;;;;;;;47.90;31.30;;;8.90;99.90;;;;;;4964775;28;20054;-63
2023/03/18 04:46:49;;;;;;;44.38;31.52;;;8.90;99.90;;;;;;4952633;28;20628;-63
2023/03/18 04:49:15;;;;;;;43.17;29.77;;;8.90;99.90;;;;;;4983977;28;20050;-62
2023/03/18 04:51:41;;;;;;;43.45;30.52;;;8.90;99.90;;;;;;4982392;28;20410;-62
2023/03/18 04:54:07;;;;;;;45.60;31.40;;;8.90;99.90;;;;;;4950867;28;20046;-62
2023/03/18 04:56:34;;;;;;;42.00;30.60;;;8.90;99.90;;;;;;4978139;28;20977;-62
2023/03/18 04:59:00;;;;;;;40.70;29.13;;;8.90;99.90;;;;;;4982986;28;20056;-63
2023/03/18 05:01:25;;;;;;;41.47;29.10;;;8.90;99.90;;;;;;4964257;28;20054;-62
2023/03/18 05:03:51;;;;;;;41.38;28.90;;;8.90;99.90;;;;;;4981586;28;20054;-62
2023/03/18 05:06:27;;;;;;;45.05;30.23;;;8.80;99.90;;;;;;4983022;28;20038;-61
2023/03/18 05:08:53;;;;;;;44.13;29.05;;;8.80;99.90;;;;;;4980619;28;20119;-62
2023/03/18 05:11:20;;;;;;;38.42;28.13;;;8.80;99.90;;;;;;4940196;28;20587;-63
2023/03/18 05:13:46;;;;;;;37.78;27.90;;;8.80;99.90;;;;;;4979199;28;20046;-62
2023/03/18 05:16:12;;;;;;;42.60;27.95;;;8.80;99.90;;;;;;4977866;28;20046;-63
2023/03/18 05:18:40;;;;;;;36.45;27.17;;;8.80;99.90;;;;;;4940315;28;20054;-63
2023/03/18 05:21:09;;;;;;;36.38;26.13;;;8.80;99.90;;;;;;4960158;28;20583;-63
2023/03/18 05:23:35;;;;;;;36.78;26.40;;;8.80;99.90;;;;;;4964475;28;20424;-62
2023/03/18 05:26:02;;;;;;;44.10;27.98;;;8.80;99.90;;;;;;4974900;28;20054;-61
2023/03/18 05:28:28;;;;;;;40.50;27.58;;;8.80;99.90;;;;;;4949832;28;20140;-62
2023/03/18 05:30:54;;;;;;;36.95;25.27;;;8.90;99.90;;;;;;4977788;28;20116;-63
2023/03/18 05:33:20;;;;;;;37.13;27.58;;;8.90;99.90;;;;;;4976420;28;20132;-63
2023/03/18 05:35:46;;;;;;;38.97;27.42;;;8.90;99.90;;;;;;4965050;28;21291;-61
2023/03/18 05:38:12;;;;;;;36.20;25.02;;;8.90;99.90;;;;;;4978088;28;20137;-61
2023/03/18 05:40:38;;;;;;;38.10;27.23;;;8.90;99.90;;;;;;4976658;28;21595;-62
2023/03/18 05:43:04;;;;;;;38.95;26.95;;;8.90;99.90;;;;;;4956854;28;20066;-63
2023/03/18 05:45:30;;;;;;;41.05;27.30;;;8.90;99.90;;;;;;4983529;28;20128;-63
2023/03/18 05:47:56;;;;;;;39.60;27.67;;;8.90;99.90;;;;;;4953047;28;20556;-62
2023/03/18 05:50:34;;;;;;;44.10;28.60;;;8.90;99.90;;;;;;4981538;28;20046;-63
2023/03/18 05:53:02;;;;;;;38.13;27.08;;;9.00;99.90;;;;;;4980425;28;20489;-63
2023/03/18 05:55:28;;;;;;;39.25;27.58;;;9.00;99.90;;;;;;4959575;28;20048;-63
2023/03/18 05:57:59;;;;;;;44.65;27.83;;;9.00;99.90;;;;;;4977035;28;20046;-62
2023/03/18 06:00:27;;;;;;;45.05;29.92;;;9.00;99.90;;;;;;4979693;28;20938;-63
2023/03/18 06:02:54;;;;;;;41.13;28.80;;;9.00;99.90;;;;;;4961215;28;20042;-62
2023/03/18 06:05:21;;;;;;;45.08;29.00;;;9.00;99.90;;;;;;4972760;28;20047;-62
2023/03/18 06:07:48;;;;;;;46.58;29.33;;;9.00;99.90;;;;;;4964270;28;21875;-61
2023/03/18 06:10:14;;;;;;;43.90;28.38;;;9.10;99.90;;;;;;4958711;28;20493;-63
2023/03/18 06:12:41;;;;;;;48.20;29.98;;;9.10;99.90;;;;;;4975649;28;20478;-61
2023/03/18 06:15:09;;;;;;;44.20;28.35;;;9.10;99.90;;;;;;4980962;28;20046;-62
2023/03/18 06:17:35;;;;;;;49.47;28.05;;;9.10;99.90;;;;;;4979007;28;20084;-61
2023/03/18 06:20:03;;;;;;;53.00;29.50;;;9.10;99.90;;;;;;4980020;28;20061;-62
2023/03/18 06:22:30;;;;;;;55.65;30.08;;;9.20;99.90;;;;;;4979948;28;20061;-63
2023/03/18 06:24:57;;;;;;;51.65;29.35;;;9.20;99.90;;;;;;4980167;28;20517;-62
2023/03/18 06:27:24;;;;;;;47.67;28.45;;;9.20;99.90;;;;;;4974815;28;20068;-62
2023/03/18 06:29:49;;;;;;;63.33;30.95;;;9.20;99.90;;;;;;4963776;28;20481;-63
2023/03/18 06:32:15;;;;;;;48.90;27.58;;;9.20;99.90;;;;;;4956082;28;20046;-62
2023/03/18 06:34:41;;;;;;;53.38;29.27;;;9.30;99.90;;;;;;4962182;28;20489;-63
2023/03/18 06:37:08;;;;;;;54.90;29.13;;;9.30;99.90;;;;;;4983687;28;20061;-63
2023/03/18 06:39:34;;;;;;;48.40;28.30;;;9.30;99.90;;;;;;4984623;28;20046;-62
2023/03/18 06:42:00;;;;;;;52.10;29.80;;;9.30;99.90;;;;;;4979212;28;20038;-62
2023/03/18 06:44:26;;;;;;;53.45;31.05;;;9.40;99.90;;;;;;4973396;28;20072;-63
2023/03/18 06:46:52;;;;;;;58.35;32.30;;;9.30;99.90;;;;;;4962409;28;20081;-62
2023/03/18 06:49:18;;;;;;;60.47;32.20;;;9.30;99.90;;;;;;4956215;28;20046;-63
2023/03/18 06:51:44;;;;;;;56.17;32.25;;;9.40;99.90;;;;;;4963986;28;20133;-62
2023/03/18 06:54:10;;;;;;;54.75;32.17;;;9.40;99.90;;;;;;4986873;28;20088;-62
2023/03/18 06:56:38;;;;;;;54.30;32.05;;;9.40;99.90;;;;;;4987505;28;20046;-62
2023/03/18 06:59:06;;;;;;;59.17;32.95;;;9.50;99.90;;;;;;4981546;28;20490;-62
2023/03/18 07:01:33;;;;;;;60.90;34.08;;;9.50;99.90;;;;;;4960196;28;21838;-62
2023/03/18 07:03:59;;;;;;;55.40;31.60;;;9.50;99.90;;;;;;4980375;28;20042;-62
2023/03/18 07:06:26;;;;;;;54.53;32.35;;;9.50;99.90;;;;;;4960322;28;20757;-62
2023/03/18 07:08:53;;;;;;;50.58;30.10;;;9.50;99.90;;;;;;4981935;28;20050;-63
2023/03/18 07:11:19;;;;;;;51.60;31.25;;;9.60;99.90;;;;;;4968876;28;20054;-62
2023/03/18 07:13:45;;;;;;;51.22;32.42;;;9.60;99.90;;;;;;4970148;28;20116;-62
2023/03/18 07:16:10;;;;;;;54.03;32.00;;;9.60;99.90;;;;;;4967853;28;20470;-63
2023/03/18 07:18:36;;;;;;;50.45;32.33;;;9.60;99.90;;;;;;4969691;28;20042;-63
2023/03/18 07:21:04;;;;;;;52.78;32.25;;;9.70;99.90;;;;;;4985788;28;20855;-62
2023/03/18 07:23:30;;;;;;;51.65;32.28;;;9.70;99.90;;;;;;4970728;28;20092;-63
2023/03/18 07:25:56;;;;;;;51.25;32.15;;;9.80;99.90;;;;;;4968311;28;20141;-62
2023/03/18 07:28:22;;;;;;;50.05;31.50;;;9.80;99.90;;;;;;4985879;28;20303;-62
2023/03/18 07:30:48;;;;;;;49.47;31.95;;;9.90;99.90;;;;;;4985648;28;20046;-62
2023/03/18 07:33:14;;;;;;;52.85;32.58;;;9.90;99.90;;;;;;4984649;28;20057;-62
2023/03/18 07:35:40;;;;;;;47.78;32.10;;;9.90;99.90;;;;;;4988812;28;20477;-62
2023/03/18 07:38:08;;;;;;;48.60;31.67;;;10.00;99.90;;;;;;4982256;28;20041;-62
2023/03/18 07:40:34;;;;;;;46.88;32.03;;;10.00;99.90;;;;;;4984897;28;20042;-61
2023/03/18 07:43:00;;;;;;;46.83;32.20;;;10.00;99.90;;;;;;4982686;28;20049;-62
2023/03/18 07:45:27;;;;;;;53.47;32.67;;;10.10;99.90;;;;;;4985370;28;20050;-62
2023/03/18 07:47:53;;;;;;;51.65;32.70;;;10.20;99.90;;;;;;4952798;28;20058;-62
2023/03/18 07:50:18;;;;;;;47.22;32.00;;;10.20;99.90;;;;;;4948416;28;20058;-62
2023/03/18 07:52:44;;;;;;;46.30;31.52;;;10.20;99.90;;;;;;4957939;28;20054;-62
2023/03/18 07:55:10;;;;;;;45.22;32.35;;;10.30;99.90;;;;;;4970282;28;20057;-62
2023/03/18 07:57:37;;;;;;;48.08;31.67;;;10.30;99.90;;;;;;4986936;28;20093;-62
2023/03/18 08:00:05;;;;;;;49.55;32.33;;;10.40;99.90;;;;;;4987992;28;20030;-61
2023/03/18 08:02:32;;;;;;;45.65;32.38;;;10.40;99.90;;;;;;4980525;28;20165;-62
2023/03/18 08:04:58;;;;;;;46.03;31.15;;;10.50;99.90;;;;;;4961186;28;20108;-62
2023/03/18 08:07:24;;;;;;;47.65;31.40;;;10.50;99.90;;;;;;4986410;28;20125;-62
2023/03/18 08:09:49;;;;;;;45.35;31.38;;;10.60;99.90;;;;;;4985966;28;20053;-63
2023/03/18 08:12:16;;;;;;;47.88;31.75;;;10.60;99.90;;;;;;4968653;28;20050;-62
2023/03/18 08:14:42;;;;;;;51.83;31.70;;;10.60;99.90;;;;;;4987019;28;20046;-63
2023/03/18 08:17:09;;;;;;;47.20;31.08;;;10.70;99.90;;;;;;4968720;28;20049;-62
2023/03/18 08:19:35;;;;;;;44.80;31.38;;;10.70;99.90;;;;;;4985319;28;20045;-62
2023/03/18 08:22:01;;;;;;;46.80;32.33;;;10.80;99.90;;;;;;4982735;28;20051;-61
2023/03/18 08:24:28;;;;;;;46.90;31.85;;;10.80;99.90;;;;;;4975943;28;20120;-62
2023/03/18 08:26:55;;;;;;;48.92;32.10;;;10.80;99.90;;;;;;4986992;28;20085;-62
2023/03/18 08:29:21;;;;;;;44.05;29.95;;;10.90;99.90;;;;;;4986881;28;20104;-63
2023/03/18 08:31:46;;;;;;;48.05;30.30;;;10.90;99.90;;;;;;4985833;28;20042;-62
2023/03/18 08:34:13;;;;;;;45.15;29.63;;;11.00;99.90;;;;;;4965466;28;20141;-63
2023/03/18 08:36:40;;;;;;;40.03;29.17;;;11.00;99.90;;;;;;4935366;28;20057;-63
2023/03/18 08:39:07;;;;;;;44.55;29.60;;;11.10;99.90;;;;;;4972363;28;20046;-62
2023/03/18 08:41:33;;;;;;;42.40;28.75;;;11.00;99.90;;;;;;4966087;28;20061;-62
2023/03/18 08:44:00;;;;;;;38.65;29.10;;;11.10;99.90;;;;;;4985033;28;20497;-62
2023/03/18 08:46:26;;;;;;;39.33;29.02;;;11.10;99.90;;;;;;4956790;28;20050;-62
2023/03/18 08:48:53;;;;;;;41.70;30.00;;;11.10;99.90;;;;;;4942548;28;20050;-62
2023/03/18 08:51:21;;;;;;;45.72;29.95;;;11.10;99.90;;;;;;4985651;28;20101;-61
2023/03/18 08:53:47;;;;;;;41.42;29.23;;;11.20;99.90;;;;;;4985866;28;20046;-62
2023/03/18 08:56:14;;;;;;;43.28;28.77;;;11.20;99.90;;;;;;4982838;28;20046;-63
2023/03/18 08:58:43;;;;;;;41.17;28.77;;;11.20;99.90;;;;;;4983302;28;20042;-62
2023/03/18 09:01:09;;;;;;;39.15;27.73;;;11.30;99.90;;;;;;4974855;28;20057;-62
2023/03/18 09:03:35;;;;;;;45.28;29.23;;;11.30;99.90;;;;;;4980000;28;20054;-62
2023/03/18 09:06:02;;;;;;;41.15;28.13;;;11.20;99.90;;;;;;4986969;28;20042;-62
2023/03/18 09:08:29;;;;;;;40.40;27.88;;;11.20;99.90;;;;;;4953565;28;20587;-62
2023/03/18 09:10:56;;;;;;;43.55;28.42;;;11.30;99.90;;;;;;4978620;28;20057;-61
2023/03/18 09:13:22;;;;;;;42.70;28.75;;;11.30;99.90;;;;;;4982891;28;20071;-62
2023/03/18 09:15:48;;;;;;;40.60;27.52;;;11.30;99.90;;;;;;4983872;28;20460;-61
2023/03/18 09:18:17;;;;;;;40.33;27.58;;;11.30;99.90;;;;;;4980663;28;20038;-63
2023/03/18 09:20:44;;;;;;;42.40;29.45;;;11.30;99.90;;;;;;4954505;28;20535;-62
2023/03/18 09:23:12;;;;;;;45.40;29.48;;;11.30;99.90;;;;;;4979540;28;20081;-62
2023/03/18 09:25:39;;;;;;;42.20;28.92;;;11.40;99.90;;;;;;4982697;28;20433;-63
2023/03/18 09:28:05;;;;;;;42.63;28.98;;;11.50;99.90;;;;;;4983784;28;20046;-63
2023/03/18 09:30:31;;;;;;;37.25;27.60;;;11.60;99.90;;;;;;4957799;28;20102;-62
2023/03/18 09:32:57;;;;;;;36.65;28.23;;;11.60;99.90;;;;;;4957909;28;20077;-62
2023/03/18 09:35:24;;;;;;;43.38;28.25;;;11.70;99.90;;;;;;4981096;28;20927;-63
2023/03/18 09:37:49;;;;;;;39.75;29.83;;;11.70;99.90;;;;;;4976830;28;20050;-61
2023/03/18 09:40:36;;;;;;;40.53;28.30;;;11.80;99.90;;;;;;4984485;28;20030;-63
2023/03/18 09:43:26;;;;;;;41.50;28.85;;;11.90;99.90;;;;;;4982719;28;20492;-62
2023/03/18 09:45:53;;;;;;;39.90;29.20;;;11.90;99.90;;;;;;4983330;28;20046;-63
2023/03/18 09:48:18;;;;;;;38.83;29.00;;;12.00;99.90;;;;;;4984874;28;20101;-62
2023/03/18 09:50:50;;;;;;;39.95;29.25;;;12.10;99.90;;;;;;4967149;28;20081;-62
2023/03/18 09:53:19;;;;;;;35.65;27.60;;;12.20;99.90;;;;;;4980381;28;20047;-62
2023/03/18 09:55:59;;;;;;;40.80;29.52;;;12.30;99.90;;;;;;4955536;28;20386;-62
2023/03/18 09:58:46;;;;;;;39.17;28.70;;;12.50;99.90;;;;;;4981453;28;20038;-63
2023/03/18 10:01:14;;;;;;;37.78;27.83;;;12.60;99.90;;;;;;4969891;28;20042;-63
2023/03/18 10:04:03;;;;;;;37.55;28.13;;;12.80;99.90;;;;;;4986236;28;20046;-62
2023/03/18 10:06:30;;;;;;;39.13;27.70;;;12.90;99.90;;;;;;4976078;28;20093;-63
2023/03/18 10:09:25;;;;;;;39.05;28.83;;;13.00;99.90;;;;;;4990042;28;20050;-62
2023/03/18 10:11:58;;;;;;;39.97;28.65;;;13.10;99.90;;;;;;4989071;28;20101;-63
2023/03/18 10:14:26;;;;;;;40.92;28.63;;;13.20;99.90;;;;;;4960849;28;20046;-62
2023/03/18 10:17:17;;;;;;;37.42;27.65;;;13.30;99.90;;;;;;4986011;28;20129;-63
2023/03/18 10:19:56;;;;;;;39.92;28.75;;;13.60;99.90;;;;;;4988001;28;20050;-62
2023/03/18 10:22:49;;;;;;;40.72;26.75;;;14.00;99.90;;;;;;4989271;28;20054;-62
2023/03/18 10:25:37;;;;;;;34.90;26.63;;;14.30;99.90;;;;;;4988631;28;20054;-63
2023/03/18 10:28:31;;;;;;;33.88;25.30;;;14.60;99.90;;;;;;4966187;28;20082;-62
2023/03/18 10:31:11;;;;;;;35.03;26.38;;;14.70;99.90;;;;;;4984586;28;20081;-62
2023/03/18 10:33:55;;;;;;;38.63;26.85;;;14.80;99.90;;;;;;4973163;28;20058;-63
2023/03/18 10:36:34;;;;;;;39.42;26.45;;;15.00;99.90;;;;;;4977935;28;20192;-62
2023/03/18 10:39:02;;;;;;;33.05;24.30;;;15.20;99.90;;;;;;4980531;28;20047;-63
2023/03/18 10:41:36;;;;;;;31.45;23.92;;;15.30;99.90;;;;;;4966469;28;20058;-63
2023/03/18 10:44:12;;;;;;;32.10;24.48;;;15.40;99.90;;;;;;4982682;28;20050;-62
2023/03/18 10:46:38;;;;;;;30.15;23.17;;;15.60;99.90;;;;;;4955535;28;20825;-62
2023/03/18 10:49:10;;;;;;;35.40;24.67;;;15.80;99.90;;;;;;4983542;28;20053;-63
2023/03/18 10:51:39;;;;;;;;;;;15.90;99.90;;;;;;4955577;28;20544;-69
2023/03/18 10:54:23;;;;;;;28.05;20.23;;;16.10;99.90;;;;;;4969057;28;19924;-70
2023/03/18 10:56:51;;;;;;;26.73;18.95;;;16.00;99.90;;;;;;4958159;28;20145;-69
2023/03/18 10:59:20;;;;;;;26.42;20.20;;;16.10;99.90;;;;;;4952696;28;20097;-70
2023/03/18 11:01:51;;;;;;;24.77;19.38;;;16.10;99.90;;;;;;4946158;28;20072;-73
2023/03/18 11:04:20;;;;;;;23.90;18.80;;;16.10;99.90;;;;;;4957852;28;20058;-66
2023/03/18 11:07:01;;;;;;;29.30;21.48;;;16.00;99.90;;;;;;4968270;28;20043;-66
2023/03/18 11:09:35;;;;;;;28.10;20.50;;;16.10;99.90;;;;;;4953576;28;20116;-66
2023/03/18 11:12:12;;;;;;;24.83;20.20;;;16.10;99.90;;;;;;4984674;28;20053;-66
2023/03/18 11:14:39;;;;;;;25.95;18.90;;;16.10;99.90;;;;;;4959218;28;20044;-66
2023/03/18 11:17:28;;;;;;;24.70;18.65;;;16.10;99.90;;;;;;4955255;28;20050;-66
2023/03/18 11:20:17;;;;;;;24.27;18.50;;;16.00;99.90;;;;;;4959984;28;20489;-66
2023/03/18 11:22:51;;;;;;;23.92;18.75;;;15.80;99.90;;;;;;4965513;28;20060;-66
2023/03/18 11:25:25;;;;;;;22.98;18.10;;;15.70;99.90;;;;;;4963533;28;20409;-66
2023/03/18 11:27:57;;;;;;;25.70;19.20;;;15.70;99.90;;;;;;4940166;28;20226;-66
2023/03/18 11:30:28;;;;;;;27.30;19.42;;;15.90;99.90;;;;;;4953063;28;20069;-66
2023/03/18 11:33:09;;;;;;;26.42;18.90;;;16.20;99.90;;;;;;4965471;28;20050;-67
2023/03/18 11:35:52;;;;;;;22.70;17.80;;;16.50;99.90;;;;;;4973061;28;20069;-66
2023/03/18 11:38:28;;;;;;;22.55;16.77;;;16.80;99.90;;;;;;4964643;28;20137;-66
2023/03/18 11:41:18;;;;;;;22.98;16.20;;;17.00;99.90;;;;;;4958026;28;20049;-66
2023/03/18 11:44:01;;;;;;;20.85;15.90;;;17.00;99.90;;;;;;4965712;28;20043;-66
2023/03/18 11:46:30;;;;;;;18.42;15.00;;;17.00;99.90;;;;;;4950086;28;20046;-66
2023/03/18 11:48:58;;;;;;;21.48;16.40;;;16.90;99.90;;;;;;4966316;28;20770;-66
2023/03/18 11:51:30;;;;;;;19.65;14.73;;;16.80;99.90;;;;;;4975529;28;20081;-67
2023/03/18 11:53:56;;;;;;;19.65;15.45;;;16.60;99.90;;;;;;4940960;28;20050;-66
2023/03/18 11:56:29;;;;;;;20.65;16.02;;;16.50;99.90;;;;;;4952559;28;20416;-66
2023/03/18 11:59:07;;;;;;;19.02;14.55;;;16.40;99.90;;;;;;4980274;28;20195;-66
2023/03/18 12:01:47;;;;;;;21.77;14.80;;;16.30;99.90;;;;;;4958653;28;20065;-66
2023/03/18 12:04:18;;;;;;;18.75;13.95;;;16.20;99.90;;;;;;4962265;28;20452;-66
2023/03/18 12:06:59;;;;;;;15.90;11.68;;;16.20;99.90;;;;;;4951597;28;21157;-68
2023/03/18 12:09:46;;;;;;;17.20;12.32;;;16.20;99.90;;;;;;4957706;28;20129;-63
2023/03/18 12:12:41;;;;;;;16.27;12.60;;;16.40;99.90;;;;;;4978057;28;20046;-63
2023/03/18 12:15:51;;;;;;;32.15;14.70;;;16.80;99.90;;;;;;4960263;28;20514;-63
2023/03/18 12:18:55;;;;;;;16.92;10.35;;;17.00;99.90;;;;;;4980763;28;20456;-64
2023/03/18 12:22:08;;;;;;;13.60;10.00;;;17.00;99.90;;;;;;4965824;28;20073;-63
2023/03/18 12:24:34;;;;;;;;;;;17.00;99.90;;;;;;4899302;29;20054;-61
2023/03/18 12:27:28;;;;;;;10.25;7.97;;;16.80;99.90;;;;;;4914156;29;21021;-60
2023/03/18 12:30:06;;;;;;;12.20;9.43;;;16.70;99.90;;;;;;4943745;28;20109;-60
2023/03/18 12:32:44;;;;;;;18.25;13.27;;;16.60;99.90;;;;;;4952775;28;20043;-60
2023/03/18 12:35:18;;;;;;;16.90;13.25;;;16.70;99.90;;;;;;4958639;28;20082;-60
2023/03/18 12:38:01;;;;;;;17.63;12.25;;;17.00;99.90;;;;;;4957045;28;20081;-58
2023/03/18 12:40:37;;;;;;;18.73;13.30;;;17.10;99.90;;;;;;4945894;28;20062;-59
2023/03/18 12:43:27;;;;;;;16.65;12.20;;;17.10;99.90;;;;;;4949340;28;20062;-59